createdAt,value
2023-03-10T00:03:50.393Z,0.63
2023-03-10T00:08:54.125Z,0.70
2023-03-10T00:13:58.891Z,0.95
2023-03-10T00:19:02.143Z,0.60
2023-03-10T00:24:11.567Z,0.70
2023-03-10T00:29:23.245Z,0.55
2023-03-10T00:34:28.721Z,0.55
2023-03-10T00:39:40.259Z,1.02
2023-03-10T00:44:44.973Z,0.60
2023-03-10T00:49:57.263Z,0.63
2023-03-10T00:55:00.629Z,0.77
2023-03-10T01:00:10.053Z,0.90
2023-03-10T01:05:16.646Z,0.93
2023-03-10T01:10:21.126Z,0.80
2023-03-10T01:15:29.948Z,0.70
2023-03-10T01:20:35.302Z,0.80
2023-03-10T01:25:39.618Z,0.80
2023-03-10T01:30:45.635Z,0.80
2023-03-10T01:35:48.961Z,0.60
2023-03-10T01:40:53.126Z,0.88
2023-03-10T01:46:43.099Z,0.80
2023-03-10T01:51:51.797Z,0.90
2023-03-10T01:56:57.593Z,0.75
2023-03-10T02:02:15.020Z,0.70
2023-03-10T02:07:22.541Z,0.45
2023-03-10T02:12:44.687Z,0.47
2023-03-10T02:17:53.445Z,0.50
2023-03-10T02:22:58.009Z,0.40
2023-03-10T02:28:03.951Z,0.75
2023-03-10T02:33:12.777Z,0.40
2023-03-10T02:38:16.034Z,0.32
2023-03-10T02:43:25.037Z,0.40
2023-03-10T02:48:33.460Z,0.52
2023-03-10T02:53:38.863Z,0.50
2023-03-10T02:58:51.557Z,0.40
2023-03-10T03:03:54.933Z,0.40
2023-03-10T03:09:00.331Z,0.30
2023-03-10T03:14:05.135Z,0.40
2023-03-10T03:19:08.598Z,0.28
2023-03-10T03:24:13.962Z,0.30
2023-03-10T03:29:18.704Z,0.20
2023-03-10T03:34:22.093Z,0.22
2023-03-10T03:39:25.404Z,0.20
2023-03-10T03:44:30.142Z,0.32
2023-03-10T03:49:35.511Z,0.30
2023-03-10T03:54:39.880Z,0.25
2023-03-10T03:59:46.775Z,0.30
2023-03-10T04:04:50.151Z,0.40
2023-03-10T04:09:53.524Z,0.47
2023-03-10T04:15:02.491Z,0.40
2023-03-10T04:20:13.387Z,0.30
2023-03-10T04:25:16.764Z,0.47
2023-03-10T04:30:24.102Z,0.50
2023-03-10T04:35:27.985Z,0.50
2023-03-10T04:40:31.531Z,0.50
2023-03-10T04:45:37.094Z,0.45
2023-03-10T04:50:41.567Z,0.45
2023-03-10T04:55:45.005Z,0.50
2023-03-10T05:01:02.381Z,0.50
2023-03-10T05:06:12.200Z,0.38
2023-03-10T05:11:15.518Z,0.50
2023-03-10T05:16:22.291Z,0.55
2023-03-10T05:21:25.921Z,0.65
2023-03-10T05:26:33.481Z,0.60
2023-03-10T05:31:39.434Z,0.45
2023-03-10T05:36:43.062Z,0.40
2023-03-10T05:41:46.398Z,0.32
2023-03-10T05:46:51.165Z,0.75
2023-03-10T05:51:54.619Z,0.43
2023-03-10T05:56:57.849Z,0.60
2023-03-10T06:02:02.801Z,0.32
2023-03-10T06:07:06.783Z,0.60
2023-03-10T06:12:11.229Z,0.40
2023-03-10T06:17:17.514Z,0.47
2023-03-10T06:22:22.946Z,0.40
2023-03-10T06:27:32.617Z,0.50
2023-03-10T06:32:38.580Z,0.40
2023-03-10T06:37:46.205Z,0.52
2023-03-10T06:42:50.573Z,0.40
2023-03-10T06:47:56.568Z,0.50
2023-03-10T06:53:00.946Z,0.30
2023-03-10T06:58:09.074Z,0.22
2023-03-10T07:03:14.877Z,0.45
2023-03-10T07:08:19.478Z,0.52
2023-03-10T07:13:22.790Z,0.20
2023-03-10T07:18:29.722Z,0.60
2023-03-10T07:23:34.167Z,0.57
2023-03-10T07:28:38.435Z,0.40
2023-03-10T07:33:43.882Z,0.50
2023-03-10T07:38:47.610Z,0.20
2023-03-10T07:49:22.456Z,0.60
2023-03-10T07:54:26.013Z,0.40
2023-03-10T07:59:29.448Z,0.30
2023-03-10T08:04:36.525Z,0.30
2023-03-10T08:09:40.384Z,0.47
2023-03-10T08:14:43.726Z,0.50
2023-03-10T08:19:49.992Z,0.40
2023-03-10T08:24:53.276Z,0.50
2023-03-10T08:29:56.708Z,0.45
2023-03-10T08:35:03.701Z,0.30
2023-03-10T08:40:09.328Z,0.47
2023-03-10T08:45:23.695Z,0.50
2023-03-10T08:50:28.454Z,0.30
2023-03-10T08:55:31.908Z,0.30
2023-03-10T09:00:41.184Z,0.30
2023-03-10T09:05:49.938Z,0.30
2023-03-10T09:10:53.714Z,0.30
2023-03-10T09:15:57.520Z,0.57
2023-03-10T09:21:03.144Z,0.30
2023-03-10T09:26:06.625Z,0.68
2023-03-10T09:31:14.723Z,0.50
2023-03-10T09:36:23.804Z,0.50
2023-03-10T09:41:58.168Z,0.80
2023-03-10T09:47:27.474Z,0.60
2023-03-10T09:52:42.949Z,0.80
2023-03-10T09:57:49.384Z,0.50
2023-03-10T10:03:04.541Z,0.60
2023-03-10T10:08:21.165Z,0.50
2023-03-10T10:13:35.723Z,0.73
2023-03-10T10:18:44.696Z,0.50
2023-03-10T10:24:02.336Z,0.40
2023-03-10T10:29:19.250Z,0.40
2023-03-10T10:34:23.692Z,0.47
2023-03-10T10:39:32.101Z,0.20
2023-03-10T10:44:45.574Z,0.22
2023-03-10T10:49:48.774Z,0.35
2023-03-10T10:55:20.282Z,0.30
2023-03-10T11:00:29.623Z,0.40
2023-03-10T11:05:42.139Z,0.47
2023-03-10T11:10:50.927Z,0.35
2023-03-10T11:16:01.282Z,0.40
2023-03-10T11:21:16.235Z,0.40
2023-03-10T11:26:35.891Z,0.60
2023-03-10T11:31:46.442Z,0.40
2023-03-10T11:36:58.724Z,0.38
2023-03-10T11:42:10.493Z,0.40
2023-03-10T11:47:23.212Z,0.25
2023-03-10T11:52:28.099Z,0.40
2023-03-10T11:57:40.942Z,0.30
2023-03-10T12:02:55.888Z,0.30
2023-03-10T12:13:45.356Z,0.30
2023-03-10T12:18:53.847Z,0.40
2023-03-10T12:24:04.542Z,0.28
2023-03-10T12:29:40.674Z,0.50
2023-03-10T12:34:45.720Z,0.20
2023-03-10T12:39:49.059Z,0.22
2023-03-10T12:45:00.347Z,0.20
2023-03-10T12:50:25.046Z,0.20
2023-03-10T12:55:36.909Z,0.20
2023-03-10T13:00:49.913Z,0.30
2023-03-10T13:06:07.359Z,0.32
2023-03-10T13:11:24.269Z,0.20
2023-03-10T13:16:27.700Z,0.25
2023-03-10T13:21:37.901Z,0.20
2023-03-10T13:26:42.810Z,0.13
2023-03-10T13:32:04.599Z,0.10
2023-03-10T13:37:11.868Z,0.20
2023-03-10T13:42:42.932Z,0.10
2023-03-10T13:47:47.406Z,0.20
2023-03-10T13:52:57.857Z,0.20
2023-03-10T13:58:15.740Z,0.20
2023-03-10T14:03:21.842Z,0.30
2023-03-10T14:08:39.785Z,0.20
2023-03-10T14:13:45.557Z,0.20
2023-03-10T14:18:54.177Z,0.20
2023-03-10T14:29:42.003Z,0.10
2023-03-10T14:34:45.444Z,0.20
2023-03-10T14:39:56.184Z,0.20
2023-03-10T14:45:04.993Z,0.30
2023-03-10T14:50:19.710Z,0.10
2023-03-10T14:55:24.545Z,0.30
2023-03-10T15:00:28.188Z,0.40
2023-03-10T15:05:48.136Z,0.25
2023-03-10T15:10:56.889Z,0.20
2023-03-10T15:16:01.142Z,0.20
2023-03-10T15:21:09.063Z,0.30
2023-03-10T15:26:18.017Z,0.20
2023-03-10T15:31:39.836Z,0.22
2023-03-10T15:36:49.399Z,0.40
2023-03-10T15:41:59.592Z,0.40
2023-03-10T15:47:11.868Z,0.65
2023-03-10T15:52:15.368Z,0.70
2023-03-10T15:57:24.228Z,0.77
2023-03-10T16:02:27.609Z,0.95
2023-03-10T16:07:36.550Z,0.65
2023-03-10T16:12:50.563Z,1.08
2023-03-10T16:17:59.256Z,0.85
2023-03-10T16:23:02.919Z,0.65
2023-03-10T16:28:10.675Z,0.77
2023-03-10T16:38:49.893Z,0.50
2023-03-10T16:43:57.588Z,0.47
2023-03-10T16:49:07.594Z,0.52
2023-03-10T16:54:17.721Z,0.45
2023-03-10T16:59:26.738Z,0.60
2023-03-10T17:04:36.690Z,0.50
2023-03-10T17:09:40.425Z,0.50
2023-03-10T17:15:30.678Z,0.65
2023-03-10T17:20:35.231Z,0.50
2023-03-10T17:25:39.923Z,0.65
2023-03-10T17:31:09.733Z,0.85
2023-03-10T17:36:15.955Z,0.80
2023-03-10T17:41:19.721Z,0.80
2023-03-10T17:46:30.237Z,0.80
2023-03-10T17:51:34.342Z,1.20
2023-03-10T17:56:38.356Z,0.90
2023-03-10T18:02:03.859Z,0.98
2023-03-10T18:07:08.314Z,1.10
2023-03-10T18:12:21.971Z,1.00
2023-03-10T18:17:31.712Z,1.13
2023-03-10T18:22:40.067Z,1.10
2023-03-10T18:27:57.057Z,0.98
2023-03-10T18:33:14.709Z,1.00
2023-03-10T18:38:21.504Z,1.10
2023-03-10T18:43:25.278Z,1.08
2023-03-10T18:48:30.989Z,1.10
2023-03-10T18:53:47.678Z,0.90
2023-03-10T18:59:01.620Z,0.80
2023-03-10T19:04:09.261Z,1.27
2023-03-10T19:09:28.772Z,1.20
2023-03-10T19:14:37.054Z,0.93
2023-03-10T19:19:47.367Z,0.90
2023-03-10T19:25:15.921Z,1.20
2023-03-10T19:30:21.482Z,1.15
2023-03-10T19:35:33.131Z,0.90
2023-03-10T19:40:41.881Z,0.88
2023-03-10T19:45:46.661Z,1.17
2023-03-10T19:51:14.206Z,0.90
2023-03-10T19:56:20.859Z,0.90
2023-03-10T20:01:28.737Z,0.80
2023-03-10T20:06:49.778Z,1.10
2023-03-10T20:12:09.493Z,0.90
2023-03-10T20:17:13.079Z,1.10
2023-03-10T20:22:20.185Z,0.80
2023-03-10T20:27:25.638Z,0.82
2023-03-10T20:32:35.790Z,0.70
2023-03-10T20:37:47.029Z,0.70
2023-03-10T20:42:51.534Z,0.50
2023-03-10T20:48:07.432Z,0.60
2023-03-10T20:53:14.574Z,0.80
2023-03-10T20:59:10.860Z,0.60
2023-03-10T21:04:48.753Z,0.87
2023-03-10T21:15:50.256Z,0.73
2023-03-10T21:32:52.053Z,0.73
2023-03-10T21:38:04.898Z,0.80
2023-03-10T21:43:17.743Z,0.60
2023-03-10T21:48:27.807Z,0.70
2023-03-10T21:53:33.299Z,0.90
2023-03-10T21:58:44.383Z,1.00
2023-03-10T22:03:57.384Z,0.77
2023-03-10T22:09:00.716Z,0.80
2023-03-10T22:14:08.372Z,0.90
2023-03-10T22:19:19.597Z,0.50
2023-03-10T22:25:12.410Z,0.70
2023-03-10T22:30:44.616Z,0.90
2023-03-10T22:35:52.408Z,0.83
2023-03-10T22:41:04.886Z,0.90
2023-03-10T22:46:18.318Z,0.70
2023-03-10T22:51:34.659Z,0.90
2023-03-10T22:57:04.927Z,0.90
2023-03-10T23:02:12.756Z,0.70
2023-03-10T23:07:19.204Z,0.87
2023-03-10T23:12:22.672Z,1.00
2023-03-10T23:17:27.225Z,0.60
2023-03-10T23:22:34.089Z,0.77
2023-03-10T23:27:38.002Z,0.80
2023-03-10T23:32:42.690Z,0.70
2023-03-10T23:37:58.374Z,0.60
2023-03-10T23:43:03.492Z,0.60
2023-03-10T23:49:05.585Z,0.70
2023-03-10T23:54:41.455Z,0.60
2023-03-10T23:59:44.766Z,0.50
